Terminal Aerodrome Forecast
Issued by NWS

Home | Current Version | Previous Version | Text Only | Print | Product List | Glossary On
Versions: 1 2 3 4 5 6 7 8 9 10 11 12 13 14
000
FTUS42 KMLB 271100
TAFISM
TAF
KISM 271131Z 2712/2812 35003KT P6SM OVC020
     FM271400 01003KT P6SM BKN025 OVC035
     FM271600 08006KT P6SM BKN035
     FM280200 06005KT 5SM BR BKN012 OVC030
      TEMPO 2804/2806 2SM BR OVC006
     FM280600 00000KT 3SM BR OVC008
     FM280900 00000KT 2SM BR OVC004
      TEMPO 2809/2812 1/2SM FG OVC002=

USA.gov is the U.S. government's official web portal to all federal, state and local government web resources and services.